createdAt,value
2023-01-13T00:02:24.692Z,36.39
2023-01-13T00:05:16.943Z,36.13
2023-01-13T00:07:50.512Z,36.44
2023-01-13T00:10:18.731Z,36.08
2023-01-13T00:12:46.844Z,36.17
2023-01-13T00:15:15.307Z,36.20
2023-01-13T00:17:43.295Z,36.37
2023-01-13T00:20:24.066Z,36.72
2023-01-13T00:23:21.175Z,36.33
2023-01-13T00:35:04.926Z,36.57
2023-01-13T00:37:32.974Z,36.60
2023-01-13T00:40:02.235Z,36.54
2023-01-13T00:42:47.763Z,36.32
2023-01-13T00:45:15.860Z,36.11
2023-01-13T00:47:44.050Z,36.38
2023-01-13T00:50:12.082Z,36.30
2023-01-13T00:52:43.123Z,36.41
2023-01-13T00:55:11.578Z,36.26
2023-01-13T00:57:42.077Z,36.81
2023-01-13T01:00:10.072Z,36.46
2023-01-13T01:02:37.908Z,36.37
2023-01-13T01:05:05.766Z,36.48
2023-01-13T01:07:33.514Z,36.56
2023-01-13T01:10:01.358Z,36.43
2023-01-13T01:12:29.320Z,36.16
2023-01-13T01:14:57.153Z,36.42
2023-01-13T01:17:24.947Z,36.64
2023-01-13T01:19:52.739Z,36.43
2023-01-13T01:22:20.500Z,36.07
2023-01-13T01:24:48.371Z,36.57
2023-01-13T01:27:16.200Z,36.55
2023-01-13T01:29:44.028Z,36.26
2023-01-13T01:32:11.986Z,36.49
2023-01-13T01:34:40.174Z,36.35
2023-01-13T01:37:08.053Z,36.58
2023-01-13T01:39:35.865Z,36.64
2023-01-13T01:42:20.989Z,36.50
2023-01-13T01:44:50.623Z,36.63
2023-01-13T01:47:18.541Z,36.32
2023-01-13T01:49:46.402Z,36.75
2023-01-13T01:52:14.218Z,36.40
2023-01-13T01:54:42.100Z,36.38
2023-01-13T01:57:09.911Z,36.70
2023-01-13T01:59:37.789Z,36.71
2023-01-13T02:02:05.826Z,36.65
2023-01-13T02:04:33.747Z,36.91
2023-01-13T02:07:01.560Z,36.70
2023-01-13T02:09:29.410Z,36.75
2023-01-13T02:12:14.673Z,36.82
2023-01-13T02:14:42.581Z,36.96
2023-01-13T02:17:10.321Z,36.72
2023-01-13T02:19:38.189Z,36.78
2023-01-13T02:22:05.997Z,36.44
2023-01-13T02:24:47.631Z,36.63
2023-01-13T02:27:15.788Z,36.69
2023-01-13T02:29:57.485Z,36.95
2023-01-13T02:32:25.727Z,36.90
2023-01-13T02:34:53.626Z,36.72
2023-01-13T02:37:21.417Z,36.72
2023-01-13T02:39:49.289Z,36.68
2023-01-13T02:42:45.967Z,36.70
2023-01-13T02:45:13.850Z,37.02
2023-01-13T02:47:41.667Z,36.93
2023-01-13T02:50:10.801Z,36.89
2023-01-13T02:52:38.557Z,36.88
2023-01-13T02:55:06.312Z,36.85
2023-01-13T02:57:34.088Z,36.87
2023-01-13T03:00:01.824Z,36.59
2023-01-13T03:02:29.800Z,36.67
2023-01-13T03:04:57.557Z,37.08
2023-01-13T03:07:25.429Z,36.93
2023-01-13T03:09:53.184Z,36.92
2023-01-13T03:12:21.048Z,36.67
2023-01-13T03:14:48.828Z,37.00
2023-01-13T03:17:16.899Z,37.06
2023-01-13T03:19:44.727Z,36.81
2023-01-13T03:22:12.561Z,36.49
2023-01-13T03:24:40.406Z,36.69
2023-01-13T03:27:08.176Z,36.81
2023-01-13T03:29:35.954Z,36.73
2023-01-13T03:32:03.742Z,36.72
2023-01-13T03:34:31.537Z,36.69
2023-01-13T03:36:59.280Z,36.81
2023-01-13T03:39:27.069Z,37.21
2023-01-13T03:41:54.888Z,36.84
2023-01-13T03:44:24.443Z,37.24
2023-01-13T03:46:52.262Z,37.02
2023-01-13T03:49:20.119Z,36.75
2023-01-13T03:51:47.950Z,36.92
2023-01-13T03:54:15.851Z,36.89
2023-01-13T03:56:43.843Z,37.02
2023-01-13T03:59:11.789Z,36.96
2023-01-13T04:01:39.774Z,36.64
2023-01-13T04:04:07.759Z,37.02
2023-01-13T04:06:36.173Z,36.91
2023-01-13T04:09:04.248Z,36.99
2023-01-13T04:11:32.176Z,36.92
2023-01-13T04:14:00.007Z,36.67
2023-01-13T04:16:27.874Z,36.92
2023-01-13T04:18:55.625Z,37.04
2023-01-13T04:21:23.415Z,36.81
2023-01-13T04:23:51.933Z,36.88
2023-01-13T04:26:20.368Z,36.95
2023-01-13T04:28:48.135Z,37.00
2023-01-13T04:31:15.938Z,36.97
2023-01-13T04:33:43.773Z,37.00
2023-01-13T04:36:11.630Z,36.74
2023-01-13T04:38:39.417Z,36.79
2023-01-13T04:41:07.232Z,36.93
2023-01-13T04:43:35.009Z,36.65
2023-01-13T04:46:02.974Z,36.75
2023-01-13T04:48:30.818Z,36.92
2023-01-13T04:50:58.743Z,36.58
2023-01-13T04:53:26.553Z,36.75
2023-01-13T04:55:55.089Z,36.89
2023-01-13T04:58:22.891Z,36.91
2023-01-13T05:00:50.680Z,36.91
2023-01-13T05:05:46.584Z,37.02
2023-01-13T05:08:14.330Z,36.55
2023-01-13T05:10:42.090Z,36.74
2023-01-13T05:13:27.412Z,36.84
2023-01-13T05:16:12.847Z,37.16
2023-01-13T05:18:40.700Z,37.32
2023-01-13T05:21:28.735Z,36.78
2023-01-13T05:24:14.326Z,36.80
2023-01-13T05:26:42.137Z,37.34
2023-01-13T05:29:09.919Z,37.66
2023-01-13T05:31:37.839Z,37.25
2023-01-13T05:34:05.663Z,37.51
2023-01-13T05:36:33.439Z,37.45
2023-01-13T05:39:02.485Z,37.37
2023-01-13T05:41:47.866Z,37.13
2023-01-13T05:44:15.593Z,37.65
2023-01-13T05:46:43.445Z,37.48
2023-01-13T05:49:11.282Z,37.34
2023-01-13T05:51:39.237Z,37.37
2023-01-13T05:54:07.077Z,37.23
2023-01-13T05:56:35.224Z,37.38
2023-01-13T05:59:03.034Z,37.27
2023-01-13T06:01:30.892Z,37.29
2023-01-13T06:03:58.713Z,37.18
2023-01-13T06:06:26.549Z,37.51
2023-01-13T06:08:54.368Z,37.34
2023-01-13T06:11:22.247Z,37.50
2023-01-13T06:13:50.072Z,37.31
2023-01-13T06:16:17.863Z,37.39
2023-01-13T06:18:45.691Z,37.33
2023-01-13T06:21:13.548Z,37.36
2023-01-13T06:23:41.365Z,37.60
2023-01-13T06:26:09.142Z,37.25
2023-01-13T06:28:36.965Z,37.35
2023-01-13T06:31:04.854Z,37.30
2023-01-13T06:33:32.648Z,37.00
2023-01-13T06:36:00.439Z,37.17
2023-01-13T06:38:28.193Z,37.50
2023-01-13T06:40:55.998Z,37.06
2023-01-13T06:43:22.767Z,37.24
2023-01-13T06:45:50.608Z,37.17
2023-01-13T06:48:18.721Z,37.17
2023-01-13T06:50:46.565Z,36.73
2023-01-13T06:53:14.348Z,36.99
2023-01-13T06:55:42.123Z,37.24
2023-01-13T06:58:09.964Z,36.98
2023-01-13T07:00:38.214Z,36.93
2023-01-13T07:03:07.087Z,37.29
2023-01-13T07:05:34.985Z,37.27
2023-01-13T07:08:02.762Z,37.02
2023-01-13T07:10:30.668Z,37.34
2023-01-13T07:13:15.811Z,37.40
2023-01-13T07:15:43.691Z,37.04
2023-01-13T07:18:11.490Z,37.18
2023-01-13T07:20:39.277Z,37.31
2023-01-13T07:23:07.037Z,37.13
2023-01-13T07:25:34.825Z,37.07
2023-01-13T07:28:02.644Z,37.24
2023-01-13T07:30:30.400Z,37.39
2023-01-13T07:32:58.221Z,37.23
2023-01-13T07:35:26.170Z,37.22
2023-01-13T07:37:53.954Z,36.75
2023-01-13T07:40:21.743Z,37.32
2023-01-13T07:43:06.866Z,37.27
2023-01-13T07:45:34.739Z,37.30
2023-01-13T07:48:02.706Z,37.00
2023-01-13T07:50:30.465Z,37.27
2023-01-13T07:52:58.250Z,37.03
2023-01-13T07:55:25.995Z,37.33
2023-01-13T07:57:53.793Z,37.17
2023-01-13T08:00:21.533Z,37.22
2023-01-13T08:02:49.361Z,37.29
2023-01-13T08:05:17.183Z,37.34
2023-01-13T08:07:44.956Z,37.52
2023-01-13T08:10:12.736Z,37.44
2023-01-13T08:12:58.115Z,37.28
2023-01-13T08:15:25.908Z,37.44
2023-01-13T08:17:53.673Z,37.56
2023-01-13T08:20:21.435Z,37.29
2023-01-13T08:22:49.229Z,37.31
2023-01-13T08:25:17.935Z,37.76
2023-01-13T08:27:45.811Z,37.18
2023-01-13T08:30:13.582Z,37.50
2023-01-13T08:32:41.710Z,37.14
2023-01-13T08:35:09.531Z,37.38
2023-01-13T08:40:29.293Z,37.18
2023-01-13T08:42:57.112Z,37.46
2023-01-13T08:45:24.886Z,36.87
2023-01-13T08:47:52.648Z,37.30
2023-01-13T08:50:21.631Z,37.33
2023-01-13T08:52:49.443Z,37.24
2023-01-13T08:55:17.191Z,37.19
2023-01-13T08:57:45.028Z,37.13
2023-01-13T09:00:12.843Z,37.06
2023-01-13T09:02:40.705Z,37.09
2023-01-13T09:05:08.443Z,37.03
2023-01-13T09:07:36.304Z,37.26
2023-01-13T09:10:04.155Z,37.06
2023-01-13T09:12:49.486Z,36.60
2023-01-13T09:15:18.544Z,37.05
2023-01-13T09:17:46.384Z,37.20
2023-01-13T09:20:14.154Z,37.26
2023-01-13T09:22:41.917Z,36.94
2023-01-13T09:25:09.955Z,37.11
2023-01-13T09:27:37.782Z,37.05
2023-01-13T09:30:05.582Z,37.00
2023-01-13T09:32:33.537Z,37.13
2023-01-13T09:35:00.432Z,37.34
2023-01-13T09:37:28.377Z,36.76
2023-01-13T09:39:56.189Z,37.07
2023-01-13T09:42:55.942Z,37.08
2023-01-13T09:45:23.904Z,37.09
2023-01-13T09:47:52.356Z,36.96
2023-01-13T09:52:47.995Z,36.89
2023-01-13T09:55:16.083Z,37.01
2023-01-13T09:57:43.949Z,36.90
2023-01-13T10:00:11.807Z,37.19
2023-01-13T10:02:39.965Z,36.70
2023-01-13T10:05:07.860Z,36.88
2023-01-13T10:07:35.710Z,37.07
2023-01-13T10:10:03.519Z,36.85
2023-01-13T10:12:49.064Z,37.28
2023-01-13T10:15:17.286Z,37.24
2023-01-13T10:17:45.037Z,37.09
2023-01-13T10:20:12.830Z,37.54
2023-01-13T10:22:40.628Z,37.62
2023-01-13T10:25:08.622Z,37.38
2023-01-13T10:27:36.677Z,37.42
2023-01-13T10:30:04.520Z,37.32
2023-01-13T10:32:32.684Z,37.35
2023-01-13T10:35:01.755Z,37.47
2023-01-13T10:37:29.503Z,37.52
2023-01-13T10:39:57.289Z,37.19
2023-01-13T10:42:25.534Z,37.58
2023-01-13T10:44:53.461Z,37.35
2023-01-13T10:47:21.316Z,37.15
2023-01-13T10:49:49.098Z,36.84
2023-01-13T10:52:16.932Z,37.62
2023-01-13T10:54:44.752Z,37.40
2023-01-13T10:57:12.725Z,37.27
2023-01-13T10:59:40.499Z,37.32
2023-01-13T11:02:24.373Z,37.37
2023-01-13T11:04:53.445Z,37.14
2023-01-13T11:07:21.247Z,37.20
2023-01-13T11:09:49.036Z,37.11
2023-01-13T11:12:16.839Z,37.18
2023-01-13T11:14:44.612Z,37.28
2023-01-13T11:17:12.372Z,37.33
2023-01-13T11:19:40.207Z,37.32
2023-01-13T11:22:08.001Z,37.38
2023-01-13T11:24:36.868Z,37.13
2023-01-13T11:27:04.620Z,36.83
2023-01-13T11:29:32.487Z,37.22
2023-01-13T11:32:00.251Z,37.02
2023-01-13T11:34:28.038Z,37.22
2023-01-13T11:36:55.829Z,37.15
2023-01-13T11:39:23.626Z,37.13
2023-01-13T11:42:11.520Z,37.20
2023-01-13T11:44:39.330Z,37.25
2023-01-13T11:47:07.103Z,37.39
2023-01-13T11:49:34.913Z,37.19
2023-01-13T11:52:02.713Z,37.34
2023-01-13T11:54:30.519Z,36.82
2023-01-13T11:56:58.315Z,36.89
2023-01-13T11:59:26.107Z,37.26
2023-01-13T12:01:54.038Z,37.27
2023-01-13T12:04:21.805Z,36.65
2023-01-13T12:06:49.728Z,37.35
2023-01-13T12:09:17.536Z,37.50
2023-01-13T12:11:59.181Z,37.33
2023-01-13T12:14:26.964Z,37.08
2023-01-13T12:16:54.749Z,37.35
2023-01-13T12:19:24.435Z,37.23
2023-01-13T12:21:52.234Z,37.36
2023-01-13T12:24:20.009Z,37.55
2023-01-13T12:26:47.809Z,37.44
2023-01-13T12:29:15.557Z,37.41
2023-01-13T12:31:43.568Z,37.26
2023-01-13T12:34:11.407Z,37.55
2023-01-13T12:36:39.303Z,37.67
2023-01-13T12:39:07.055Z,37.95
2023-01-13T12:41:34.843Z,37.34
2023-01-13T12:44:20.466Z,37.26
2023-01-13T12:46:53.047Z,37.69
2023-01-13T12:49:20.813Z,37.42
2023-01-13T12:51:48.667Z,37.38
2023-01-13T12:54:16.429Z,37.63
2023-01-13T12:56:44.897Z,37.58
2023-01-13T12:59:12.698Z,37.39
2023-01-13T13:01:40.637Z,37.31
2023-01-13T13:04:08.479Z,37.55
2023-01-13T13:06:36.269Z,37.68
2023-01-13T13:09:04.441Z,37.29
2023-01-13T13:11:49.680Z,37.57
2023-01-13T13:14:17.405Z,37.58
2023-01-13T13:16:45.186Z,37.29
2023-01-13T13:19:12.923Z,37.47
2023-01-13T13:21:40.633Z,37.10
2023-01-13T13:24:08.385Z,37.50
2023-01-13T13:26:36.156Z,37.17
2023-01-13T13:29:03.877Z,37.10
2023-01-13T13:31:31.603Z,37.20
2023-01-13T13:33:59.348Z,37.43
2023-01-13T13:36:27.283Z,37.39
2023-01-13T13:39:12.381Z,37.08
2023-01-13T13:41:58.042Z,37.33
2023-01-13T13:44:43.201Z,37.17
2023-01-13T13:47:10.920Z,36.96
2023-01-13T13:49:41.244Z,37.72
2023-01-13T13:52:11.031Z,37.06
2023-01-13T13:54:38.830Z,37.05
2023-01-13T13:57:06.617Z,37.34
2023-01-13T13:59:34.696Z,37.06
2023-01-13T14:02:03.788Z,36.75
2023-01-13T14:04:31.836Z,37.27
2023-01-13T14:06:59.688Z,37.08
2023-01-13T14:09:28.602Z,37.10
2023-01-13T14:11:56.534Z,37.27
2023-01-13T14:14:25.044Z,37.14
2023-01-13T14:16:54.813Z,37.08
2023-01-13T14:19:22.582Z,37.10
2023-01-13T14:21:50.297Z,37.13
2023-01-13T14:24:20.626Z,37.20
2023-01-13T14:26:51.885Z,37.41
2023-01-13T14:29:19.649Z,37.34
2023-01-13T14:31:47.397Z,37.36
2023-01-13T14:34:32.527Z,37.52
2023-01-13T14:37:00.907Z,37.28
2023-01-13T14:39:28.716Z,37.66
2023-01-13T14:41:56.842Z,37.58
2023-01-13T14:44:25.164Z,37.85
2023-01-13T14:46:54.147Z,32.98
2023-01-13T14:49:21.899Z,23.72
2023-01-13T14:51:49.649Z,19.29
2023-01-13T14:54:17.421Z,16.61
2023-01-13T14:56:47.126Z,15.14
2023-01-13T14:59:14.874Z,14.10
2023-01-13T15:01:42.704Z,13.23
2023-01-13T15:04:10.514Z,12.73
2023-01-13T15:06:38.269Z,12.44
2023-01-13T15:09:06.031Z,12.05
2023-01-13T15:11:33.775Z,12.03
2023-01-13T15:14:02.347Z,11.51
2023-01-13T15:16:33.842Z,12.19
2023-01-13T15:19:02.540Z,12.79
2023-01-13T15:21:30.303Z,13.43
2023-01-13T15:23:58.029Z,13.93
2023-01-13T15:26:25.808Z,14.29
2023-01-13T15:28:53.566Z,15.25
2023-01-13T15:31:21.503Z,16.05
2023-01-13T15:33:49.373Z,16.91
2023-01-13T15:36:17.134Z,17.90
2023-01-13T15:41:54.359Z,19.71
2023-01-13T15:44:39.492Z,20.30
2023-01-13T15:47:07.218Z,21.02
2023-01-13T15:49:36.214Z,21.96
2023-01-13T15:52:04.219Z,22.43
2023-01-13T15:54:31.931Z,23.30
2023-01-13T15:56:59.691Z,24.07
2023-01-13T15:59:27.429Z,24.62
2023-01-13T16:01:55.218Z,25.24
2023-01-13T16:04:22.958Z,26.03
2023-01-13T16:06:51.901Z,26.24
2023-01-13T16:09:19.653Z,27.06
2023-01-13T16:11:47.372Z,27.57
2023-01-13T16:14:15.126Z,27.75
2023-01-13T16:16:42.930Z,28.62
2023-01-13T16:19:10.716Z,28.76
2023-01-13T16:21:38.978Z,28.89
2023-01-13T16:24:06.710Z,29.55
2023-01-13T16:26:36.204Z,29.93
2023-01-13T16:29:04.602Z,30.39
2023-01-13T16:31:32.990Z,30.56
2023-01-13T16:34:00.779Z,30.76
2023-01-13T16:36:28.512Z,31.30
2023-01-13T16:38:57.977Z,31.42
2023-01-13T16:41:25.941Z,27.91
2023-01-13T16:43:54.046Z,23.23
2023-01-13T16:46:21.816Z,19.77
2023-01-13T16:48:49.571Z,17.83
2023-01-13T16:51:17.303Z,16.52
2023-01-13T16:53:45.423Z,16.36
2023-01-13T16:56:13.116Z,15.50
2023-01-13T16:58:40.832Z,16.26
2023-01-13T17:01:08.689Z,16.62
2023-01-13T17:03:38.275Z,17.30
2023-01-13T17:06:06.091Z,18.31
2023-01-13T17:08:33.831Z,18.96
2023-01-13T17:11:01.642Z,19.69
2023-01-13T17:13:29.471Z,20.40
2023-01-13T17:15:57.182Z,21.08
2023-01-13T17:18:24.921Z,22.32
2023-01-13T17:20:52.917Z,22.33
2023-01-13T17:23:20.667Z,23.41
2023-01-13T17:25:48.408Z,24.24
2023-01-13T17:28:16.178Z,24.47
2023-01-13T17:30:44.050Z,25.35
2023-01-13T17:33:11.779Z,25.79
2023-01-13T17:35:39.674Z,26.27
2023-01-13T17:38:07.419Z,26.70
2023-01-13T17:40:35.113Z,27.32
2023-01-13T17:43:02.867Z,27.62
2023-01-13T17:45:30.669Z,28.21
2023-01-13T17:47:59.555Z,28.50
2023-01-13T17:50:28.133Z,28.86
2023-01-13T17:52:55.969Z,29.01
2023-01-13T17:55:23.721Z,29.52
2023-01-13T17:57:51.465Z,29.83
2023-01-13T18:00:19.275Z,30.10
2023-01-13T18:02:47.073Z,30.20
2023-01-13T18:05:14.907Z,30.77
2023-01-13T18:07:42.620Z,31.08
2023-01-13T18:10:10.802Z,30.92
2023-01-13T18:12:38.561Z,31.82
2023-01-13T18:15:07.255Z,31.85
2023-01-13T18:17:34.986Z,31.54
2023-01-13T18:20:20.379Z,31.55
2023-01-13T18:23:05.735Z,31.30
2023-01-13T18:25:50.921Z,31.38
2023-01-13T18:28:18.629Z,31.84
2023-01-13T18:30:46.441Z,31.58
2023-01-13T18:33:14.320Z,31.98
2023-01-13T18:35:42.079Z,31.67
2023-01-13T18:38:11.412Z,32.31
2023-01-13T18:40:39.271Z,32.14
2023-01-13T18:43:05.980Z,27.29
2023-01-13T18:45:33.715Z,22.00
2023-01-13T18:48:01.474Z,19.65
2023-01-13T18:50:29.254Z,17.14
2023-01-13T18:52:57.204Z,16.25
2023-01-13T18:55:24.937Z,15.31
2023-01-13T18:57:53.754Z,15.23
2023-01-13T19:05:34.271Z,15.77
2023-01-13T19:08:02.071Z,16.05
2023-01-13T19:10:32.570Z,16.79
2023-01-13T19:13:01.441Z,17.47
2023-01-13T19:15:29.256Z,18.37
2023-01-13T19:17:57.036Z,19.54
2023-01-13T19:20:25.274Z,19.70
2023-01-13T19:22:55.850Z,20.78
2023-01-13T19:25:23.635Z,21.27
2023-01-13T19:27:54.367Z,22.50
2023-01-13T19:30:25.089Z,22.78
2023-01-13T19:32:53.177Z,23.75
2023-01-13T19:35:23.159Z,24.11
2023-01-13T19:37:50.997Z,24.89
2023-01-13T19:40:18.783Z,24.75
2023-01-13T19:43:13.010Z,25.65
2023-01-13T19:45:44.761Z,26.47
2023-01-13T19:48:16.058Z,26.82
2023-01-13T19:50:43.993Z,27.37
2023-01-13T19:53:14.295Z,27.79
2023-01-13T19:55:47.721Z,27.77
2023-01-13T19:58:19.857Z,28.71
2023-01-13T20:00:48.626Z,28.87
2023-01-13T20:03:16.873Z,29.33
2023-01-13T20:05:47.875Z,29.27
2023-01-13T20:08:18.055Z,30.11
2023-01-13T20:10:46.396Z,29.81
2023-01-13T20:13:17.580Z,30.31
2023-01-13T20:15:48.341Z,31.02
2023-01-13T20:18:16.228Z,30.85
2023-01-13T20:20:47.941Z,30.97
2023-01-13T20:23:17.889Z,31.41
2023-01-13T20:25:48.645Z,31.58
2023-01-13T20:28:16.603Z,31.77
2023-01-13T20:30:47.613Z,32.29
2023-01-13T20:33:15.497Z,32.12
2023-01-13T20:35:47.967Z,32.03
2023-01-13T20:38:16.261Z,31.67
2023-01-13T20:40:44.125Z,32.02
2023-01-13T20:43:10.911Z,32.05
2023-01-13T20:45:40.501Z,32.04
2023-01-13T20:48:08.324Z,32.21
2023-01-13T20:50:36.075Z,32.20
2023-01-13T20:53:04.358Z,32.12
2023-01-13T20:55:34.378Z,32.21
2023-01-13T20:58:05.150Z,32.31
2023-01-13T21:00:35.947Z,32.55
2023-01-13T21:03:04.034Z,33.21
2023-01-13T21:05:34.976Z,33.05
2023-01-13T21:08:05.871Z,32.82
2023-01-13T21:10:33.857Z,32.89
2023-01-13T21:13:25.584Z,33.50
2023-01-13T21:16:00.066Z,33.39
2023-01-13T21:18:45.800Z,33.76
2023-01-13T21:23:56.343Z,33.58
2023-01-13T21:26:28.524Z,33.62
2023-01-13T21:29:08.433Z,33.96
2023-01-13T21:31:39.265Z,33.82
2023-01-13T21:34:07.853Z,34.22
2023-01-13T21:36:35.752Z,34.12
2023-01-13T21:39:03.576Z,34.02
2023-01-13T21:41:52.309Z,34.22
2023-01-13T21:44:45.913Z,33.80
2023-01-13T21:47:31.096Z,34.04
2023-01-13T21:50:01.872Z,34.55
2023-01-13T21:52:29.941Z,34.33
2023-01-13T21:55:15.958Z,34.31
2023-01-13T21:57:47.197Z,34.56
2023-01-13T22:00:15.015Z,34.53
2023-01-13T22:02:46.598Z,34.50
2023-01-13T22:05:14.579Z,34.66
2023-01-13T22:07:42.650Z,35.01
2023-01-13T22:10:14.355Z,34.71
2023-01-13T22:12:44.983Z,34.63
2023-01-13T22:15:14.293Z,34.88
2023-01-13T22:17:42.808Z,34.92
2023-01-13T22:20:10.617Z,34.81
2023-01-13T22:22:40.922Z,34.86
2023-01-13T22:25:11.420Z,34.71
2023-01-13T22:27:42.575Z,35.05
2023-01-13T22:30:34.701Z,34.86
2023-01-13T22:33:04.786Z,35.32
2023-01-13T22:35:32.686Z,35.47
2023-01-13T22:38:00.533Z,35.24
2023-01-13T22:40:29.230Z,35.34
2023-01-13T22:43:01.567Z,35.30
2023-01-13T22:45:29.362Z,35.28
2023-01-13T22:47:57.329Z,35.06
2023-01-13T22:50:25.122Z,35.49
2023-01-13T22:52:52.891Z,35.19
2023-01-13T22:55:20.708Z,35.43
2023-01-13T22:57:48.705Z,35.52
2023-01-13T23:00:19.451Z,35.07
2023-01-13T23:02:47.619Z,35.26
2023-01-13T23:05:15.411Z,35.59
2023-01-13T23:07:43.415Z,35.23
2023-01-13T23:10:11.550Z,35.64
2023-01-13T23:12:39.664Z,35.34
2023-01-13T23:15:07.509Z,35.73
2023-01-13T23:17:35.608Z,35.65
2023-01-13T23:20:06.457Z,35.53
2023-01-13T23:22:38.703Z,35.64
2023-01-13T23:25:06.501Z,35.39
2023-01-13T23:27:35.086Z,35.80
2023-01-13T23:30:02.878Z,35.46
2023-01-13T23:32:30.644Z,35.52
2023-01-13T23:34:58.458Z,35.88
2023-01-13T23:37:26.305Z,35.85
2023-01-13T23:40:00.429Z,35.57
2023-01-13T23:42:28.599Z,35.55
2023-01-13T23:44:58.726Z,36.28
2023-01-13T23:47:29.084Z,36.24
2023-01-13T23:50:01.035Z,35.91
2023-01-13T23:52:32.018Z,35.55
2023-01-13T23:55:00.216Z,35.62
2023-01-13T23:57:29.274Z,35.89
2023-01-13T23:59:57.323Z,36.09
